createdAt,value
2022-11-06T00:00:20.577Z,101457.38
2022-11-06T00:02:44.287Z,101460.25
2022-11-06T00:05:27.260Z,101459.41
2022-11-06T00:07:51.226Z,101450.50
2022-11-06T00:10:15.090Z,101456.06
2022-11-06T00:12:38.689Z,101458.72
2022-11-06T00:15:02.219Z,101460.53
2022-11-06T00:17:26.267Z,101456.22
2022-11-06T00:19:49.848Z,101445.72
2022-11-06T00:22:16.503Z,101450.31
2022-11-06T00:24:40.006Z,101440.31
2022-11-06T00:27:03.570Z,101450.47
2022-11-06T00:29:27.186Z,101442.53
2022-11-06T00:31:51.676Z,101451.31
2022-11-06T00:34:15.168Z,101448.84
2022-11-06T00:36:38.853Z,101450.47
2022-11-06T00:39:04.763Z,101450.66
2022-11-06T00:41:29.416Z,101446.56
2022-11-06T00:43:55.254Z,101448.34
2022-11-06T00:46:19.738Z,101444.94
2022-11-06T00:48:43.790Z,101453.94
2022-11-06T00:51:17.973Z,101457.31
2022-11-06T00:53:42.057Z,101449.00
2022-11-06T00:56:10.052Z,101458.78
2022-11-06T00:58:33.793Z,101457.00
2022-11-06T01:00:57.293Z,101456.50
2022-11-06T01:03:20.881Z,101451.91
2022-11-06T01:05:44.477Z,101459.09
2022-11-06T01:08:08.042Z,101450.25
2022-11-06T01:10:31.845Z,101444.69
2022-11-06T01:12:56.829Z,101440.25
2022-11-06T01:15:20.393Z,101443.56
2022-11-06T01:17:43.968Z,101442.00
2022-11-06T01:20:08.930Z,101441.28
2022-11-06T01:22:32.485Z,101438.53
2022-11-06T01:24:56.100Z,101438.44
2022-11-06T01:27:26.498Z,101432.06
2022-11-06T01:29:51.851Z,101429.03
2022-11-06T01:32:15.399Z,101423.50
2022-11-06T01:34:39.070Z,101426.31
2022-11-06T01:37:02.672Z,101429.63
2022-11-06T01:39:26.235Z,101424.13
2022-11-06T01:41:52.377Z,101413.22
2022-11-06T01:45:06.859Z,101411.72
2022-11-06T01:47:31.555Z,101400.97
2022-11-06T01:49:58.673Z,101411.50
2022-11-06T01:52:22.990Z,101410.41
2022-11-06T01:54:51.989Z,101400.56
2022-11-06T01:57:15.688Z,101392.47
2022-11-06T01:59:44.080Z,101387.13
2022-11-06T02:02:09.495Z,101391.94
2022-11-06T02:04:37.758Z,101390.97
2022-11-06T02:07:02.294Z,101395.31
2022-11-06T02:09:26.785Z,101385.28
2022-11-06T02:11:56.902Z,101388.88
2022-11-06T02:14:40.922Z,101383.41
2022-11-06T02:17:11.024Z,101385.91
2022-11-06T02:20:02.065Z,101381.53
2022-11-06T02:22:41.661Z,101384.69
2022-11-06T02:25:26.017Z,101381.09
2022-11-06T02:27:58.100Z,101378.41
2022-11-06T02:30:22.263Z,101377.88
2022-11-06T02:32:50.026Z,101374.97
2022-11-06T02:35:22.777Z,101381.34
2022-11-06T02:37:48.761Z,101374.38
2022-11-06T02:40:14.766Z,101388.28
2022-11-06T02:42:43.444Z,101380.94
2022-11-06T02:45:11.636Z,101386.97
2022-11-06T02:47:36.481Z,101382.28
2022-11-06T02:50:08.222Z,101383.22
2022-11-06T02:52:36.514Z,101371.41
2022-11-06T02:55:09.338Z,101367.34
2022-11-06T02:57:38.912Z,101370.00
2022-11-06T03:00:09.529Z,101380.66
2022-11-06T03:02:40.937Z,101376.28
2022-11-06T03:05:10.872Z,101373.13
2022-11-06T03:07:39.450Z,101371.25
2022-11-06T03:10:03.381Z,101367.94
2022-11-06T03:12:31.341Z,101359.41
2022-11-06T03:15:01.495Z,101364.19
2022-11-06T03:17:39.244Z,101369.03
2022-11-06T03:20:15.895Z,101372.91
2022-11-06T03:22:47.513Z,101364.19
2022-11-06T03:25:19.477Z,101373.66
2022-11-06T03:27:52.774Z,101371.16
2022-11-06T03:30:17.084Z,101364.75
2022-11-06T03:32:48.648Z,101369.75
2022-11-06T03:35:19.675Z,101370.69
2022-11-06T03:37:51.121Z,101365.00
2022-11-06T03:40:19.963Z,101354.66
2022-11-06T03:42:47.489Z,101364.78
2022-11-06T03:45:15.981Z,101359.09
2022-11-06T03:47:43.901Z,101363.00
2022-11-06T03:50:14.568Z,101350.53
2022-11-06T03:52:44.768Z,101345.38
2022-11-06T03:55:14.066Z,101358.69
2022-11-06T03:57:43.976Z,101348.28
2022-11-06T04:00:10.004Z,101349.72
2022-11-06T04:02:45.839Z,101359.63
2022-11-06T04:05:14.837Z,101363.38
2022-11-06T04:08:03.609Z,101361.00
2022-11-06T04:10:44.681Z,101362.66
2022-11-06T04:13:26.128Z,101358.34
2022-11-06T04:15:54.189Z,101359.63
2022-11-06T04:18:21.639Z,101350.50
2022-11-06T04:21:25.082Z,101352.72
2022-11-06T04:24:23.626Z,101344.19
2022-11-06T04:26:59.892Z,101337.34
2022-11-06T04:29:37.508Z,101342.50
2022-11-06T04:32:09.259Z,101341.75
2022-11-06T04:34:44.933Z,101337.34
2022-11-06T04:37:14.771Z,101341.38
2022-11-06T04:39:51.473Z,101339.75
2022-11-06T04:42:22.533Z,101337.97
2022-11-06T04:44:51.851Z,101332.38
2022-11-06T04:47:18.825Z,101328.31
2022-11-06T04:49:45.397Z,101334.81
2022-11-06T04:52:13.631Z,101330.47
2022-11-06T04:54:37.461Z,101330.72
2022-11-06T04:57:02.826Z,101334.97
2022-11-06T04:59:26.364Z,101329.13
2022-11-06T05:01:50.037Z,101330.66
2022-11-06T05:04:14.184Z,101334.09
2022-11-06T05:06:39.444Z,101322.66
2022-11-06T05:09:02.971Z,101328.13
2022-11-06T05:11:26.686Z,101323.91
2022-11-06T05:13:50.209Z,101332.44
2022-11-06T05:16:14.170Z,101336.38
2022-11-06T05:18:38.161Z,101329.41
2022-11-06T05:21:19.785Z,101334.16
2022-11-06T05:23:44.837Z,101329.00
2022-11-06T05:26:09.265Z,101329.72
2022-11-06T05:28:33.125Z,101327.19
2022-11-06T05:30:56.687Z,101332.22
2022-11-06T05:33:20.236Z,101326.88
2022-11-06T05:35:43.739Z,101325.19
2022-11-06T05:38:07.366Z,101320.00
2022-11-06T05:40:32.659Z,101323.25
2022-11-06T05:42:56.848Z,101319.59
2022-11-06T05:45:20.566Z,101315.41
2022-11-06T05:47:44.236Z,101313.34
2022-11-06T05:50:09.061Z,101322.16
2022-11-06T05:52:32.762Z,101325.75
2022-11-06T05:54:56.332Z,101324.19
2022-11-06T05:57:21.310Z,101330.34
2022-11-06T05:59:45.254Z,101330.34
2022-11-06T06:02:09.220Z,101323.31
2022-11-06T06:04:32.898Z,101319.59
2022-11-06T06:06:56.525Z,101320.13
2022-11-06T06:09:20.177Z,101314.25
2022-11-06T06:11:43.774Z,101313.16
2022-11-06T06:14:08.806Z,101313.84
2022-11-06T06:16:33.023Z,101311.66
2022-11-06T06:18:56.531Z,101313.38
2022-11-06T06:21:20.431Z,101323.00
2022-11-06T06:23:44.131Z,101327.47
2022-11-06T06:26:07.934Z,101322.47
2022-11-06T06:28:31.943Z,101332.22
2022-11-06T06:31:01.194Z,101331.22
2022-11-06T06:33:25.166Z,101330.72
2022-11-06T06:35:48.766Z,101328.41
2022-11-06T06:38:12.651Z,101332.88
2022-11-06T06:40:36.393Z,101337.84
2022-11-06T06:43:00.408Z,101345.31
2022-11-06T06:45:24.072Z,101338.00
2022-11-06T06:47:48.976Z,101347.31
2022-11-06T06:50:12.576Z,101343.75
2022-11-06T06:52:36.136Z,101345.66
2022-11-06T06:54:59.701Z,101344.16
2022-11-06T06:57:23.445Z,101341.91
2022-11-06T06:59:47.003Z,101340.66
2022-11-06T07:02:11.111Z,101337.25
2022-11-06T07:04:36.198Z,101346.22
2022-11-06T07:06:59.710Z,101341.25
2022-11-06T07:09:23.899Z,101335.84
2022-11-06T07:11:47.481Z,101336.09
2022-11-06T07:14:11.766Z,101340.06
2022-11-06T07:16:35.278Z,101339.16
2022-11-06T07:18:59.054Z,101345.84
2022-11-06T07:21:23.979Z,101341.16
2022-11-06T07:23:47.544Z,101335.06
2022-11-06T07:26:11.225Z,101339.28
2022-11-06T07:28:35.209Z,101343.19
2022-11-06T07:31:02.863Z,101345.31
2022-11-06T07:33:26.530Z,101348.69
2022-11-06T07:35:50.077Z,101347.50
2022-11-06T07:38:15.275Z,101343.31
2022-11-06T07:40:39.060Z,101345.28
2022-11-06T07:43:06.649Z,101343.63
2022-11-06T07:45:30.858Z,101344.63
2022-11-06T07:47:59.247Z,101344.16
2022-11-06T07:50:22.912Z,101338.13
2022-11-06T07:52:46.535Z,101330.34
2022-11-06T07:55:11.768Z,101334.19
2022-11-06T07:57:38.418Z,101333.69
2022-11-06T08:00:01.929Z,101329.22
2022-11-06T08:02:25.650Z,101329.16
2022-11-06T08:04:49.243Z,101323.97
2022-11-06T08:07:12.785Z,101323.34
2022-11-06T08:09:36.553Z,101328.44
2022-11-06T08:12:01.610Z,101324.81
2022-11-06T08:14:25.152Z,101323.78
2022-11-06T08:16:48.742Z,101318.72
2022-11-06T08:19:12.268Z,101311.19
2022-11-06T08:21:35.952Z,101313.78
2022-11-06T08:23:59.509Z,101316.50
2022-11-06T08:26:23.066Z,101307.03
2022-11-06T08:28:48.001Z,101312.53
2022-11-06T08:31:11.801Z,101310.56
2022-11-06T08:33:37.242Z,101309.38
2022-11-06T08:36:03.528Z,101312.44
2022-11-06T08:38:27.069Z,101309.03
2022-11-06T08:40:53.660Z,101305.25
2022-11-06T08:43:17.672Z,101302.63
2022-11-06T08:45:44.369Z,101297.78
2022-11-06T08:48:09.301Z,101306.84
2022-11-06T08:50:33.854Z,101298.28
2022-11-06T08:52:58.343Z,101299.19
2022-11-06T08:55:21.916Z,101297.94
2022-11-06T08:57:45.478Z,101287.63
2022-11-06T09:00:11.974Z,101295.03
2022-11-06T09:02:37.056Z,101288.06
2022-11-06T09:05:00.703Z,101285.72
2022-11-06T09:07:24.364Z,101281.28
2022-11-06T09:09:47.977Z,101277.25
2022-11-06T09:12:11.578Z,101280.44
2022-11-06T09:14:35.729Z,101277.28
2022-11-06T09:17:00.028Z,101278.56
2022-11-06T09:19:24.985Z,101276.31
2022-11-06T09:21:54.402Z,101280.34
2022-11-06T09:24:27.544Z,101270.19
2022-11-06T09:27:01.950Z,101278.16
2022-11-06T09:29:25.458Z,101278.56
2022-11-06T09:31:49.029Z,101282.56
2022-11-06T09:34:12.667Z,101278.69
2022-11-06T09:36:37.757Z,101292.63
2022-11-06T09:39:01.281Z,101294.84
2022-11-06T09:41:36.249Z,101296.09
2022-11-06T09:44:18.066Z,101287.03
2022-11-06T09:46:46.155Z,101280.19
2022-11-06T09:49:19.953Z,101284.59
2022-11-06T09:51:54.729Z,101281.38
2022-11-06T09:54:25.145Z,101282.19
2022-11-06T09:56:56.860Z,101278.19
2022-11-06T09:59:22.149Z,101278.56
2022-11-06T10:01:49.538Z,101270.06
2022-11-06T10:04:30.824Z,101272.78
2022-11-06T10:06:56.378Z,101265.53
2022-11-06T10:09:20.000Z,101266.97
2022-11-06T10:11:56.351Z,101258.50
2022-11-06T10:14:45.348Z,101259.44
2022-11-06T10:17:21.177Z,101265.25
2022-11-06T10:19:56.434Z,101257.44
2022-11-06T10:22:30.566Z,101262.81
2022-11-06T10:25:05.052Z,101254.69
2022-11-06T10:27:34.586Z,101247.41
2022-11-06T10:30:07.074Z,101238.25
2022-11-06T10:33:06.414Z,101230.28
2022-11-06T10:35:37.265Z,101234.31
2022-11-06T10:38:08.097Z,101224.06
2022-11-06T10:40:35.121Z,101221.56
2022-11-06T10:43:09.393Z,101212.44
2022-11-06T10:45:33.771Z,101211.56
2022-11-06T10:48:03.526Z,101211.34
2022-11-06T10:50:37.326Z,101208.19
2022-11-06T10:53:07.905Z,101211.91
2022-11-06T10:56:10.995Z,101204.59
2022-11-06T10:58:35.672Z,101201.16
2022-11-06T11:01:03.860Z,101199.56
2022-11-06T11:03:32.188Z,101192.53
2022-11-06T11:05:56.362Z,101189.09
2022-11-06T11:08:43.571Z,101187.03
2022-11-06T11:11:18.081Z,101197.28
2022-11-06T11:13:42.083Z,101185.91
2022-11-06T11:16:06.773Z,101180.03
2022-11-06T11:18:32.357Z,101181.34
2022-11-06T11:21:09.566Z,101188.47
2022-11-06T11:23:34.651Z,101184.50
2022-11-06T11:26:19.742Z,101179.16
2022-11-06T11:28:43.452Z,101172.94
2022-11-06T11:31:09.989Z,101175.63
2022-11-06T11:33:34.017Z,101173.72
2022-11-06T11:35:57.678Z,101172.97
2022-11-06T11:38:22.935Z,101168.81
2022-11-06T11:40:47.893Z,101175.38
2022-11-06T11:43:25.422Z,101161.94
2022-11-06T11:46:15.745Z,101145.91
2022-11-06T11:48:48.233Z,101153.41
2022-11-06T11:51:35.522Z,101158.53
2022-11-06T11:54:05.590Z,101160.97
2022-11-06T11:56:58.201Z,101152.19
2022-11-06T11:59:21.006Z,101157.97
2022-11-06T12:01:44.768Z,101155.44
2022-11-06T12:04:23.052Z,101151.63
2022-11-06T12:06:58.144Z,101147.09
2022-11-06T12:09:22.663Z,101143.72
2022-11-06T12:11:48.467Z,101129.63
2022-11-06T12:14:27.481Z,101123.94
2022-11-06T12:16:55.503Z,101127.97
2022-11-06T12:19:21.975Z,101132.72
2022-11-06T12:21:47.769Z,101124.31
2022-11-06T12:24:17.120Z,101116.53
2022-11-06T12:26:49.924Z,101115.81
2022-11-06T12:29:17.619Z,101115.31
2022-11-06T12:31:46.492Z,101107.69
2022-11-06T12:34:18.199Z,101113.56
2022-11-06T12:36:58.084Z,101110.19
2022-11-06T12:39:25.581Z,101103.41
2022-11-06T12:41:52.363Z,101096.84
2022-11-06T12:44:18.068Z,101094.88
2022-11-06T12:46:53.318Z,101097.00
2022-11-06T12:49:53.015Z,101090.75
2022-11-06T12:52:45.001Z,101094.28
2022-11-06T12:55:22.030Z,101087.16
2022-11-06T12:58:12.477Z,101085.69
2022-11-06T13:00:46.701Z,101094.50
2022-11-06T13:03:40.826Z,101084.97
2022-11-06T13:06:13.416Z,101082.31
2022-11-06T13:08:46.973Z,101075.53
2022-11-06T13:11:27.194Z,101072.91
2022-11-06T13:14:09.456Z,101069.31
2022-11-06T13:16:40.907Z,101076.53
2022-11-06T13:19:12.077Z,101072.75
2022-11-06T13:22:01.761Z,101066.97
2022-11-06T13:24:33.133Z,101062.22
2022-11-06T13:27:03.753Z,101056.47
2022-11-06T13:29:28.789Z,101063.19
2022-11-06T13:31:57.362Z,101060.53
2022-11-06T13:34:26.488Z,101057.94
2022-11-06T13:36:50.560Z,101051.00
2022-11-06T13:39:22.050Z,101048.53
2022-11-06T13:41:45.621Z,101053.91
2022-11-06T13:44:15.991Z,101044.00
2022-11-06T13:46:52.759Z,101034.06
2022-11-06T13:49:24.568Z,101025.81
2022-11-06T13:51:55.387Z,101026.66
2022-11-06T13:54:37.272Z,101020.84
2022-11-06T13:57:38.003Z,101019.94
2022-11-06T14:00:20.402Z,101024.94
2022-11-06T14:03:41.034Z,101022.81
2022-11-06T14:06:07.830Z,101024.03
2022-11-06T14:08:36.458Z,101018.53
2022-11-06T14:11:04.981Z,101020.31
2022-11-06T14:13:34.731Z,101023.09
2022-11-06T14:16:19.342Z,101020.38
2022-11-06T14:18:44.611Z,101016.50
2022-11-06T14:21:47.915Z,101021.13
2022-11-06T14:24:32.133Z,101013.00
2022-11-06T14:26:56.024Z,101016.28
2022-11-06T14:29:56.717Z,101010.91
2022-11-06T14:32:46.041Z,101008.50
2022-11-06T14:35:54.083Z,100999.59
2022-11-06T14:38:43.681Z,100989.72
2022-11-06T14:41:56.416Z,101003.91
2022-11-06T14:44:44.338Z,100985.44
2022-11-06T14:47:20.468Z,100983.50
2022-11-06T14:49:51.330Z,100983.59
2022-11-06T14:52:18.472Z,100968.56
2022-11-06T14:54:52.299Z,100961.00
2022-11-06T14:57:19.813Z,100960.25
2022-11-06T14:59:44.149Z,100963.94
2022-11-06T15:02:20.530Z,100958.81
2022-11-06T15:04:49.164Z,100964.97
2022-11-06T15:08:03.407Z,100953.81
2022-11-06T15:10:51.771Z,100954.19
2022-11-06T15:13:26.965Z,100961.16
2022-11-06T15:15:53.498Z,100953.44
2022-11-06T15:18:22.984Z,100950.91
2022-11-06T15:20:51.936Z,100960.78
2022-11-06T15:23:21.212Z,100954.06
2022-11-06T15:26:02.519Z,100956.13
2022-11-06T15:28:33.064Z,100954.19
2022-11-06T15:31:02.375Z,100953.47
2022-11-06T15:33:33.115Z,100954.06
2022-11-06T15:36:00.141Z,100955.16
2022-11-06T15:38:36.871Z,100967.34
2022-11-06T15:41:00.537Z,100959.91
2022-11-06T15:43:30.300Z,100964.59
2022-11-06T15:46:23.791Z,100962.19
2022-11-06T15:48:47.872Z,100965.28
2022-11-06T15:51:26.318Z,100962.56
2022-11-06T15:53:52.073Z,100953.03
2022-11-06T15:56:17.612Z,100948.34
2022-11-06T15:58:41.545Z,100944.97
2022-11-06T16:01:07.578Z,100944.13
2022-11-06T16:03:34.044Z,100930.50
2022-11-06T16:06:00.681Z,100923.28
2022-11-06T16:08:27.529Z,100920.06
2022-11-06T16:10:53.737Z,100915.56
2022-11-06T16:13:20.214Z,100919.50
2022-11-06T16:15:52.627Z,100916.13
2022-11-06T16:18:20.487Z,100914.50
2022-11-06T16:20:45.077Z,100918.72
2022-11-06T16:23:12.023Z,100915.44
2022-11-06T16:25:35.875Z,100902.50
2022-11-06T16:28:00.877Z,100905.47
2022-11-06T16:30:25.999Z,100900.16
2022-11-06T16:32:50.482Z,100901.41
2022-11-06T16:35:34.366Z,100905.34
2022-11-06T16:38:18.909Z,100907.25
2022-11-06T16:40:53.317Z,100901.59
2022-11-06T16:43:20.981Z,100898.53
2022-11-06T16:45:58.680Z,100904.53
2022-11-06T16:48:34.647Z,100900.00
2022-11-06T16:51:00.641Z,100902.19
2022-11-06T16:53:27.105Z,100895.16
2022-11-06T16:55:59.069Z,100897.47
2022-11-06T16:58:25.280Z,100899.22
2022-11-06T17:00:59.523Z,100897.38
2022-11-06T17:03:24.566Z,100898.13
2022-11-06T17:05:54.134Z,100900.59
2022-11-06T17:08:26.126Z,100896.63
2022-11-06T17:10:50.570Z,100896.09
2022-11-06T17:13:18.154Z,100899.19
2022-11-06T17:15:44.126Z,100896.97
2022-11-06T17:18:07.889Z,100895.97
2022-11-06T17:20:33.202Z,100894.81
2022-11-06T17:22:56.708Z,100892.16
2022-11-06T17:25:20.437Z,100896.63
2022-11-06T17:27:43.949Z,100893.44
2022-11-06T17:30:12.988Z,100901.97
2022-11-06T17:32:37.993Z,100897.16
2022-11-06T17:35:01.637Z,100886.13
2022-11-06T17:37:26.290Z,100888.72
2022-11-06T17:39:50.099Z,100891.28
2022-11-06T17:42:13.628Z,100890.00
2022-11-06T17:44:37.409Z,100893.84
2022-11-06T17:47:00.970Z,100894.91
2022-11-06T17:49:26.061Z,100900.50
2022-11-06T17:51:58.215Z,100894.50
2022-11-06T17:54:25.402Z,100896.00
2022-11-06T17:56:49.913Z,100896.84
2022-11-06T17:59:15.286Z,100893.22
2022-11-06T18:01:39.197Z,100887.22
2022-11-06T18:04:03.032Z,100886.13
2022-11-06T18:06:28.739Z,100881.66
2022-11-06T18:08:57.712Z,100880.13
2022-11-06T18:11:21.230Z,100882.59
2022-11-06T18:13:45.442Z,100875.84
2022-11-06T18:16:17.385Z,100879.81
2022-11-06T18:18:41.057Z,100869.75
2022-11-06T18:21:05.807Z,100866.78
2022-11-06T18:23:31.102Z,100878.31
2022-11-06T18:25:56.965Z,100867.41
2022-11-06T18:28:20.572Z,100873.09
2022-11-06T18:30:44.057Z,100879.72
2022-11-06T18:33:07.693Z,100880.69
2022-11-06T18:35:31.245Z,100880.38
2022-11-06T18:37:54.876Z,100880.03
2022-11-06T18:40:20.010Z,100877.25
2022-11-06T18:42:43.687Z,100861.81
2022-11-06T18:45:08.549Z,100857.22
2022-11-06T18:47:32.153Z,100850.47
2022-11-06T18:49:55.730Z,100858.81
2022-11-06T18:52:37.956Z,100856.97
2022-11-06T18:55:02.895Z,100859.53
2022-11-06T18:57:27.873Z,100854.22
2022-11-06T18:59:51.457Z,100861.56
2022-11-06T19:02:17.026Z,100866.66
2022-11-06T19:04:40.738Z,100855.25
2022-11-06T19:07:04.376Z,100846.06
2022-11-06T19:09:28.285Z,100847.78
2022-11-06T19:11:51.822Z,100842.44
2022-11-06T19:14:16.844Z,100844.34
2022-11-06T19:16:40.353Z,100847.56
2022-11-06T19:19:06.414Z,100850.16
2022-11-06T19:21:31.491Z,100852.50
2022-11-06T19:24:00.299Z,100849.50
2022-11-06T19:26:31.752Z,100840.84
2022-11-06T19:28:58.042Z,100836.63
2022-11-06T19:31:28.980Z,100845.81
2022-11-06T19:33:53.080Z,100846.66
2022-11-06T19:36:16.574Z,100841.81
2022-11-06T19:38:40.265Z,100841.81
2022-11-06T19:41:05.997Z,100840.72
2022-11-06T19:43:30.283Z,100845.88
2022-11-06T19:45:53.829Z,100851.44
2022-11-06T19:48:18.822Z,100849.53
2022-11-06T19:50:59.414Z,100853.47
2022-11-06T19:53:25.253Z,100840.94
2022-11-06T19:55:49.490Z,100831.19
2022-11-06T19:58:13.165Z,100838.19
2022-11-06T20:00:36.710Z,100835.31
2022-11-06T20:03:00.271Z,100831.22
2022-11-06T20:05:25.697Z,100834.34
2022-11-06T20:07:49.341Z,100832.19
2022-11-06T20:10:12.860Z,100834.53
2022-11-06T20:12:36.439Z,100822.88
2022-11-06T20:14:59.990Z,100820.97
2022-11-06T20:17:23.648Z,100815.69
2022-11-06T20:19:47.319Z,100816.66
2022-11-06T20:22:12.501Z,100819.13
2022-11-06T20:24:37.886Z,100815.25
2022-11-06T20:27:01.537Z,100813.31
2022-11-06T20:29:25.689Z,100815.69
2022-11-06T20:31:49.425Z,100820.72
2022-11-06T20:34:13.041Z,100818.50
2022-11-06T20:36:36.722Z,100814.84
2022-11-06T20:39:03.393Z,100813.78
2022-11-06T20:41:28.725Z,100809.38
2022-11-06T20:43:53.560Z,100800.06
2022-11-06T20:46:19.158Z,100804.03
2022-11-06T20:48:43.026Z,100803.94
2022-11-06T20:51:10.005Z,100799.44
2022-11-06T20:53:34.506Z,100792.16
2022-11-06T20:56:00.724Z,100786.56
2022-11-06T20:58:24.615Z,100777.38
2022-11-06T21:00:48.234Z,100779.19
2022-11-06T21:03:11.911Z,100768.63
2022-11-06T21:05:36.751Z,100770.84
2022-11-06T21:08:00.358Z,100765.81
2022-11-06T21:10:23.952Z,100755.78
2022-11-06T21:12:48.889Z,100756.09
2022-11-06T21:15:12.509Z,100761.03
2022-11-06T21:17:36.131Z,100762.94
2022-11-06T21:19:59.718Z,100751.72
2022-11-06T21:22:23.431Z,100757.28
2022-11-06T21:24:47.104Z,100748.09
2022-11-06T21:27:10.897Z,100741.88
2022-11-06T21:29:36.146Z,100740.56
2022-11-06T21:31:59.646Z,100737.31
2022-11-06T21:34:23.250Z,100739.63
2022-11-06T21:36:47.279Z,100738.25
2022-11-06T21:39:15.383Z,100733.91
2022-11-06T21:41:39.489Z,100735.75
2022-11-06T21:44:04.462Z,100731.34
2022-11-06T21:46:29.827Z,100727.34
2022-11-06T21:48:53.885Z,100728.97
2022-11-06T21:51:20.217Z,100725.81
2022-11-06T21:54:01.292Z,100730.06
2022-11-06T21:56:26.319Z,100724.50
2022-11-06T21:58:51.992Z,100727.53
2022-11-06T22:01:15.780Z,100726.13
2022-11-06T22:03:41.330Z,100723.88
2022-11-06T22:06:09.859Z,100717.44
2022-11-06T22:08:33.416Z,100720.28
2022-11-06T22:10:57.026Z,100715.28
2022-11-06T22:13:20.633Z,100722.81
2022-11-06T22:15:44.233Z,100715.28
2022-11-06T22:18:07.797Z,100716.06
2022-11-06T22:20:32.780Z,100709.88
2022-11-06T22:22:56.371Z,100703.31
2022-11-06T22:25:20.072Z,100699.78
2022-11-06T22:27:44.583Z,100711.25
2022-11-06T22:30:10.056Z,100708.91
2022-11-06T22:32:33.623Z,100715.09
2022-11-06T22:34:57.222Z,100713.63
2022-11-06T22:37:22.139Z,100706.75
2022-11-06T22:39:45.749Z,100708.91
2022-11-06T22:42:09.670Z,100705.78
2022-11-06T22:44:33.983Z,100708.91
2022-11-06T22:46:57.785Z,100720.38
2022-11-06T22:49:21.698Z,100706.88
2022-11-06T22:51:45.250Z,100721.19
2022-11-06T22:54:10.269Z,100710.19
2022-11-06T22:56:34.369Z,100708.41
2022-11-06T22:59:00.303Z,100710.97
2022-11-06T23:01:26.896Z,100717.00
2022-11-06T23:03:50.886Z,100710.78
2022-11-06T23:06:14.526Z,100711.19
2022-11-06T23:08:44.136Z,100721.63
2022-11-06T23:11:14.370Z,100712.50
2022-11-06T23:13:38.157Z,100716.84
2022-11-06T23:16:09.204Z,100709.97
2022-11-06T23:18:33.110Z,100710.84
2022-11-06T23:20:56.683Z,100704.09
2022-11-06T23:23:20.304Z,100700.13
2022-11-06T23:25:43.812Z,100694.72
2022-11-06T23:28:08.830Z,100704.91
2022-11-06T23:30:32.933Z,100701.66
2022-11-06T23:32:56.811Z,100705.34
2022-11-06T23:35:22.762Z,100708.13
2022-11-06T23:37:46.617Z,100700.00
2022-11-06T23:40:12.745Z,100705.38
2022-11-06T23:42:36.480Z,100707.25
2022-11-06T23:45:21.449Z,100712.56
2022-11-06T23:47:45.201Z,100705.13
2022-11-06T23:50:09.868Z,100697.44
2022-11-06T23:52:34.160Z,100690.19
2022-11-06T23:54:57.990Z,100690.63
2022-11-06T23:57:22.102Z,100693.31
2022-11-06T23:59:45.641Z,100688.66
